createdAt,value
2023-01-21T00:01:15.152Z,22.32
2023-01-21T00:03:43.370Z,22.23
2023-01-21T00:06:14.975Z,22.11
2023-01-21T00:08:43.288Z,21.95
2023-01-21T00:11:14.451Z,21.66
2023-01-21T00:13:43.080Z,21.78
2023-01-21T00:16:12.451Z,21.86
2023-01-21T00:18:40.451Z,21.73
2023-01-21T00:21:08.473Z,22.00
2023-01-21T00:23:37.857Z,21.80
2023-01-21T00:26:08.193Z,21.80
2023-01-21T00:28:37.486Z,21.73
2023-01-21T00:31:07.932Z,21.55
2023-01-21T00:33:37.753Z,21.50
2023-01-21T00:36:07.941Z,21.62
2023-01-21T00:38:37.825Z,21.67
2023-01-21T00:41:07.799Z,21.64
2023-01-21T00:43:36.319Z,21.67
2023-01-21T00:46:04.759Z,21.59
2023-01-21T00:48:33.309Z,21.44
2023-01-21T00:51:01.747Z,21.51
2023-01-21T00:53:31.204Z,21.63
2023-01-21T00:56:05.548Z,21.39
2023-01-21T00:58:34.042Z,21.55
2023-01-21T01:01:03.736Z,21.49
2023-01-21T01:03:31.856Z,21.65
2023-01-21T01:06:03.497Z,21.73
2023-01-21T01:08:31.467Z,21.35
2023-01-21T01:10:59.788Z,21.64
2023-01-21T01:13:29.923Z,21.51
2023-01-21T01:15:58.748Z,21.47
2023-01-21T01:18:28.805Z,21.47
2023-01-21T01:20:57.167Z,21.70
2023-01-21T01:23:25.637Z,21.39
2023-01-21T01:25:57.817Z,21.29
2023-01-21T01:28:26.246Z,21.38
2023-01-21T01:30:56.204Z,21.28
2023-01-21T01:33:24.612Z,21.47
2023-01-21T01:35:53.305Z,21.31
2023-01-21T01:38:23.039Z,21.27
2023-01-21T01:40:53.192Z,21.34
2023-01-21T01:43:23.370Z,21.18
2023-01-21T01:45:52.053Z,21.29
2023-01-21T01:48:27.375Z,21.55
2023-01-21T01:50:57.970Z,21.28
2023-01-21T01:53:27.705Z,21.14
2023-01-21T01:55:56.435Z,21.01
2023-01-21T01:58:24.633Z,21.10
2023-01-21T02:00:52.627Z,21.29
2023-01-21T02:03:39.514Z,20.97
2023-01-21T02:06:07.964Z,21.09
2023-01-21T02:08:36.513Z,21.26
2023-01-21T02:11:11.649Z,21.42
2023-01-21T02:13:40.169Z,21.10
2023-01-21T02:16:29.286Z,21.36
2023-01-21T02:19:12.684Z,21.30
2023-01-21T02:21:59.469Z,21.28
2023-01-21T02:25:16.506Z,21.37
2023-01-21T02:27:54.043Z,21.52
2023-01-21T02:30:42.355Z,21.36
2023-01-21T02:33:37.057Z,21.41
2023-01-21T02:36:15.968Z,21.64
2023-01-21T02:38:53.619Z,21.69
2023-01-21T02:41:29.688Z,21.60
2023-01-21T02:44:07.947Z,21.71
2023-01-21T02:46:44.073Z,21.44
2023-01-21T02:49:22.696Z,21.17
2023-01-21T02:51:50.828Z,21.28
2023-01-21T02:54:50.850Z,21.21
2023-01-21T02:57:31.621Z,21.35
2023-01-21T03:00:01.681Z,21.28
2023-01-21T03:02:47.630Z,21.38
2023-01-21T03:05:26.365Z,21.48
2023-01-21T03:08:01.744Z,21.69
2023-01-21T03:10:36.089Z,21.15
2023-01-21T03:13:08.264Z,21.29
2023-01-21T03:15:57.430Z,21.56
2023-01-21T03:18:30.615Z,21.44
2023-01-21T03:21:04.666Z,21.27
2023-01-21T03:23:37.889Z,21.55
2023-01-21T03:26:08.569Z,21.50
2023-01-21T03:28:43.053Z,21.21
2023-01-21T03:31:19.709Z,21.43
2023-01-21T03:33:52.439Z,21.29
2023-01-21T03:36:28.085Z,21.51
2023-01-21T03:38:57.556Z,21.21
2023-01-21T03:41:32.108Z,21.27
2023-01-21T03:44:00.480Z,21.33
2023-01-21T03:46:37.758Z,21.22
2023-01-21T03:49:11.305Z,21.26
2023-01-21T03:51:46.351Z,21.42
2023-01-21T03:54:14.461Z,21.67
2023-01-21T03:56:42.433Z,21.54
2023-01-21T03:59:10.412Z,21.64
2023-01-21T04:01:39.547Z,21.48
2023-01-21T04:04:07.787Z,21.36
2023-01-21T04:06:36.757Z,21.50
2023-01-21T04:09:06.753Z,21.55
2023-01-21T04:11:34.853Z,21.57
2023-01-21T04:14:03.088Z,21.66
2023-01-21T04:16:31.226Z,21.71
2023-01-21T04:18:59.160Z,21.51
2023-01-21T04:21:27.281Z,21.40
2023-01-21T04:23:55.257Z,21.58
2023-01-21T04:26:24.637Z,21.39
2023-01-21T04:28:52.586Z,21.50
2023-01-21T04:31:20.668Z,21.55
2023-01-21T04:33:48.603Z,21.46
2023-01-21T04:36:16.635Z,21.57
2023-01-21T04:38:44.516Z,21.63
2023-01-21T04:41:12.471Z,21.52
2023-01-21T04:43:41.869Z,21.33
2023-01-21T04:46:09.945Z,21.46
2023-01-21T04:48:37.952Z,21.39
2023-01-21T04:51:07.990Z,21.32
2023-01-21T04:53:36.164Z,21.58
2023-01-21T04:56:04.549Z,21.65
2023-01-21T04:58:32.625Z,21.74
2023-01-21T05:01:02.025Z,21.72
2023-01-21T05:03:30.079Z,21.64
2023-01-21T05:05:58.110Z,21.72
2023-01-21T05:08:26.077Z,21.72
2023-01-21T05:10:53.995Z,21.75
2023-01-21T05:13:21.918Z,21.66
2023-01-21T05:15:50.087Z,21.79
2023-01-21T05:18:19.474Z,21.74
2023-01-21T05:20:47.479Z,21.78
2023-01-21T05:23:15.332Z,21.71
2023-01-21T05:25:43.296Z,21.84
2023-01-21T05:28:11.229Z,21.72
2023-01-21T05:30:41.034Z,21.62
2023-01-21T05:33:09.762Z,21.52
2023-01-21T05:35:39.086Z,21.81
2023-01-21T05:38:07.071Z,21.90
2023-01-21T05:40:35.145Z,21.73
2023-01-21T05:43:03.264Z,21.62
2023-01-21T05:45:31.186Z,21.60
2023-01-21T05:47:59.147Z,21.55
2023-01-21T05:50:27.224Z,21.44
2023-01-21T05:52:56.518Z,21.55
2023-01-21T05:55:24.479Z,21.53
2023-01-21T05:57:52.426Z,21.42
2023-01-21T06:00:21.075Z,21.51
2023-01-21T06:02:49.303Z,21.43
2023-01-21T06:05:17.397Z,21.51
2023-01-21T06:07:45.457Z,21.58
2023-01-21T06:10:14.861Z,21.72
2023-01-21T06:12:42.943Z,21.59
2023-01-21T06:15:11.660Z,21.65
2023-01-21T06:17:40.873Z,21.66
2023-01-21T06:20:10.464Z,21.70
2023-01-21T06:22:38.495Z,21.71
2023-01-21T06:25:07.178Z,21.68
2023-01-21T06:27:38.384Z,21.55
2023-01-21T06:30:07.905Z,21.57
2023-01-21T06:32:37.089Z,21.49
2023-01-21T06:35:05.809Z,21.57
2023-01-21T06:37:34.141Z,21.54
2023-01-21T06:40:02.116Z,21.58
2023-01-21T06:42:30.129Z,21.35
2023-01-21T06:44:59.565Z,21.40
2023-01-21T06:47:27.506Z,21.41
2023-01-21T06:49:55.437Z,21.43
2023-01-21T06:52:23.711Z,21.52
2023-01-21T06:54:51.646Z,21.40
2023-01-21T06:57:19.667Z,21.39
2023-01-21T06:59:47.631Z,21.40
2023-01-21T07:02:16.976Z,21.31
2023-01-21T07:04:45.587Z,21.30
2023-01-21T07:07:13.585Z,21.49
2023-01-21T07:09:41.501Z,21.44
2023-01-21T07:12:09.417Z,21.52
2023-01-21T07:14:37.355Z,21.58
2023-01-21T07:17:05.687Z,21.46
2023-01-21T07:19:35.189Z,21.51
2023-01-21T07:22:03.246Z,21.17
2023-01-21T07:24:31.201Z,21.48
2023-01-21T07:26:59.277Z,21.57
2023-01-21T07:29:28.012Z,21.61
2023-01-21T07:31:56.093Z,21.64
2023-01-21T07:34:24.094Z,21.63
2023-01-21T07:36:53.394Z,21.63
2023-01-21T07:39:21.358Z,21.68
2023-01-21T07:41:49.469Z,21.68
2023-01-21T07:44:18.936Z,21.63
2023-01-21T07:46:47.026Z,21.47
2023-01-21T07:49:17.430Z,21.49
2023-01-21T07:51:45.627Z,21.57
2023-01-21T07:54:15.736Z,21.56
2023-01-21T07:56:43.839Z,21.48
2023-01-21T07:59:13.355Z,21.32
2023-01-21T08:01:41.639Z,21.50
2023-01-21T08:04:09.885Z,21.21
2023-01-21T08:06:41.387Z,21.20
2023-01-21T08:09:09.629Z,21.31
2023-01-21T08:11:39.030Z,21.16
2023-01-21T08:14:07.078Z,21.29
2023-01-21T08:16:35.291Z,21.22
2023-01-21T08:19:03.427Z,21.37
2023-01-21T08:21:31.425Z,21.30
2023-01-21T08:23:59.505Z,21.47
2023-01-21T08:26:27.564Z,21.43
2023-01-21T08:28:57.174Z,21.31
2023-01-21T08:31:25.144Z,21.38
2023-01-21T08:33:53.202Z,21.32
2023-01-21T08:36:21.203Z,21.37
2023-01-21T08:38:49.275Z,21.46
2023-01-21T08:41:17.889Z,21.43
2023-01-21T08:43:47.051Z,21.38
2023-01-21T08:46:16.353Z,21.33
2023-01-21T08:48:44.277Z,21.34
2023-01-21T08:51:12.337Z,21.33
2023-01-21T08:53:40.388Z,21.31
2023-01-21T08:56:08.627Z,21.41
2023-01-21T08:58:37.051Z,21.14
2023-01-21T09:01:08.922Z,21.25
2023-01-21T09:03:38.588Z,21.28
2023-01-21T09:06:08.328Z,21.22
2023-01-21T09:08:37.344Z,21.32
2023-01-21T09:11:07.192Z,21.11
2023-01-21T09:13:37.439Z,21.19
2023-01-21T09:16:10.148Z,21.24
2023-01-21T09:18:39.574Z,21.25
2023-01-21T09:21:08.785Z,21.26
2023-01-21T09:23:38.118Z,21.29
2023-01-21T09:26:08.487Z,21.21
2023-01-21T09:28:37.807Z,21.33
2023-01-21T09:31:08.020Z,21.25
2023-01-21T09:33:41.074Z,21.20
2023-01-21T09:36:13.482Z,21.10
2023-01-21T09:38:43.917Z,21.05
2023-01-21T09:41:23.533Z,20.97
2023-01-21T09:43:58.894Z,21.04
2023-01-21T09:46:33.797Z,20.83
2023-01-21T09:49:06.739Z,20.98
2023-01-21T09:51:52.252Z,21.12
2023-01-21T09:54:26.629Z,20.91
2023-01-21T09:57:30.146Z,20.81
2023-01-21T10:00:14.389Z,20.65
2023-01-21T10:02:50.775Z,20.68
2023-01-21T10:05:40.359Z,20.76
2023-01-21T10:08:19.226Z,20.77
2023-01-21T10:10:52.623Z,20.80
2023-01-21T10:13:43.773Z,20.53
2023-01-21T10:16:18.944Z,20.61
2023-01-21T10:18:49.715Z,20.62
2023-01-21T10:21:30.731Z,20.65
2023-01-21T10:24:05.370Z,20.75
2023-01-21T10:26:35.787Z,20.54
2023-01-21T10:29:04.107Z,20.65
2023-01-21T10:31:40.180Z,20.68
2023-01-21T10:34:13.671Z,20.67
2023-01-21T10:36:56.585Z,20.68
2023-01-21T10:39:35.795Z,20.64
2023-01-21T10:42:32.365Z,20.79
2023-01-21T10:45:08.356Z,21.10
2023-01-21T10:47:43.406Z,21.05
2023-01-21T10:50:29.752Z,21.24
2023-01-21T10:53:07.901Z,21.77
2023-01-21T10:55:48.135Z,22.56
2023-01-21T10:58:27.266Z,23.33
2023-01-21T11:00:58.905Z,23.88
2023-01-21T11:03:35.401Z,24.53
2023-01-21T11:06:06.963Z,24.40
2023-01-21T11:08:36.643Z,23.53
2023-01-21T11:11:07.445Z,23.57
2023-01-21T11:13:35.469Z,23.03
2023-01-21T11:16:04.674Z,22.83
2023-01-21T11:18:36.833Z,22.63
2023-01-21T11:21:17.633Z,22.32
2023-01-21T11:23:54.936Z,22.26
2023-01-21T11:26:26.280Z,22.58
2023-01-21T11:29:14.276Z,22.86
2023-01-21T11:31:43.251Z,22.80
2023-01-21T11:34:15.345Z,22.51
2023-01-21T11:36:56.552Z,22.51
2023-01-21T11:39:26.885Z,22.33
2023-01-21T11:41:55.625Z,22.30
2023-01-21T11:44:24.959Z,22.01
2023-01-21T11:46:53.277Z,21.91
2023-01-21T11:49:25.021Z,21.95
2023-01-21T11:52:13.762Z,21.74
2023-01-21T11:54:43.417Z,21.81
2023-01-21T11:57:23.726Z,21.76
2023-01-21T11:59:53.327Z,21.63
2023-01-21T12:02:24.363Z,21.34
2023-01-21T12:04:55.070Z,21.21
2023-01-21T12:07:26.729Z,21.32
2023-01-21T12:10:07.152Z,21.15
2023-01-21T12:12:53.688Z,21.19
2023-01-21T12:15:38.494Z,21.12
2023-01-21T12:18:21.102Z,20.87
2023-01-21T12:20:59.511Z,21.07
2023-01-21T12:23:55.691Z,21.24
2023-01-21T12:26:41.330Z,21.23
2023-01-21T12:29:26.142Z,20.93
2023-01-21T12:32:00.151Z,20.87
2023-01-21T12:34:34.223Z,20.79
2023-01-21T12:37:06.061Z,20.83
2023-01-21T12:39:37.534Z,20.71
2023-01-21T12:42:14.946Z,20.73
2023-01-21T12:44:49.336Z,20.86
2023-01-21T12:47:28.042Z,20.90
2023-01-21T12:50:07.994Z,20.56
2023-01-21T12:52:43.035Z,20.65
2023-01-21T12:55:21.834Z,20.51
2023-01-21T12:57:56.971Z,20.68
2023-01-21T13:00:27.652Z,20.70
2023-01-21T13:03:11.208Z,20.68
2023-01-21T13:05:47.497Z,20.62
2023-01-21T13:08:39.706Z,20.51
2023-01-21T13:11:17.109Z,20.45
2023-01-21T13:13:55.447Z,20.71
2023-01-21T13:16:26.094Z,20.72
2023-01-21T13:18:55.204Z,20.65
2023-01-21T13:21:37.066Z,20.54
2023-01-21T13:24:16.940Z,20.33
2023-01-21T13:26:52.880Z,20.22
2023-01-21T13:29:32.068Z,20.36
2023-01-21T13:32:24.870Z,20.45
2023-01-21T13:35:06.811Z,20.59
2023-01-21T13:37:43.288Z,20.56
2023-01-21T13:40:25.839Z,20.36
2023-01-21T13:45:44.286Z,20.63
2023-01-21T13:48:27.139Z,20.64
2023-01-21T13:51:12.940Z,20.69
2023-01-21T13:53:59.660Z,20.62
2023-01-21T13:56:43.910Z,20.59
2023-01-21T13:59:17.223Z,20.57
2023-01-21T14:01:51.925Z,20.57
2023-01-21T14:04:26.846Z,20.35
2023-01-21T14:07:01.818Z,20.26
2023-01-21T14:09:38.376Z,20.46
2023-01-21T14:12:16.747Z,20.37
2023-01-21T14:15:16.780Z,20.18
2023-01-21T14:18:03.337Z,20.15
2023-01-21T14:20:45.501Z,20.30
2023-01-21T14:23:23.903Z,20.38
2023-01-21T14:26:05.073Z,20.19
2023-01-21T14:28:39.644Z,20.17
2023-01-21T14:31:13.633Z,20.37
2023-01-21T14:33:48.726Z,20.24
2023-01-21T14:36:20.914Z,20.34
2023-01-21T14:39:02.010Z,20.11
2023-01-21T14:41:54.983Z,19.97
2023-01-21T14:44:39.789Z,19.96
2023-01-21T14:47:15.925Z,20.13
2023-01-21T14:49:46.916Z,19.98
2023-01-21T14:52:17.064Z,20.05
2023-01-21T14:54:46.514Z,19.92
2023-01-21T14:57:27.545Z,19.86
2023-01-21T15:00:03.835Z,20.09
2023-01-21T15:02:34.319Z,20.03
2023-01-21T15:05:16.555Z,19.73
2023-01-21T15:07:46.753Z,19.54
2023-01-21T15:10:19.833Z,19.82
2023-01-21T15:12:52.914Z,19.92
2023-01-21T15:15:31.019Z,19.61
2023-01-21T15:18:18.231Z,19.75
2023-01-21T15:20:50.727Z,19.93
2023-01-21T15:23:21.465Z,19.80
2023-01-21T15:26:19.259Z,19.84
2023-01-21T15:28:49.401Z,19.58
2023-01-21T15:31:45.711Z,19.77
2023-01-21T15:34:16.096Z,20.01
2023-01-21T15:36:47.690Z,19.74
2023-01-21T15:39:18.322Z,19.67
2023-01-21T15:41:59.045Z,19.61
2023-01-21T15:44:45.274Z,19.90
2023-01-21T15:47:29.570Z,19.90
2023-01-21T15:50:04.891Z,20.09
2023-01-21T15:52:53.616Z,20.23
2023-01-21T15:55:33.274Z,20.83
2023-01-21T15:58:13.987Z,21.67
2023-01-21T16:00:52.747Z,21.73
2023-01-21T16:03:25.676Z,21.48
2023-01-21T16:06:02.024Z,21.25
2023-01-21T16:08:51.755Z,21.19
2023-01-21T16:11:41.485Z,21.12
2023-01-21T16:14:23.153Z,20.92
2023-01-21T16:17:00.828Z,20.97
2023-01-21T16:19:32.952Z,20.61
2023-01-21T16:22:05.054Z,20.69
2023-01-21T16:24:41.241Z,20.50
2023-01-21T16:27:19.573Z,20.42
2023-01-21T16:29:47.557Z,20.46
2023-01-21T16:32:20.318Z,20.24
2023-01-21T16:34:48.563Z,20.24
2023-01-21T16:37:18.533Z,20.39
2023-01-21T16:39:48.045Z,20.34
2023-01-21T16:42:30.503Z,20.16
2023-01-21T16:44:59.705Z,20.02
2023-01-21T16:47:32.419Z,20.16
2023-01-21T16:50:00.628Z,19.88
2023-01-21T16:52:29.949Z,19.91
2023-01-21T16:54:59.403Z,19.49
2023-01-21T16:57:31.712Z,19.57
2023-01-21T17:00:02.623Z,19.74
2023-01-21T17:02:32.899Z,19.61
2023-01-21T17:05:04.707Z,19.73
2023-01-21T17:07:36.102Z,19.67
2023-01-21T17:10:07.830Z,19.83
2023-01-21T17:12:36.577Z,19.51
2023-01-21T17:15:14.540Z,19.70
2023-01-21T17:17:42.682Z,19.64
2023-01-21T17:20:35.403Z,19.70
2023-01-21T17:23:04.824Z,19.92
2023-01-21T17:25:36.221Z,20.88
2023-01-21T17:28:17.776Z,21.73
2023-01-21T17:30:45.923Z,22.21
2023-01-21T17:33:30.601Z,22.97
2023-01-21T17:36:10.843Z,23.16
2023-01-21T17:38:43.718Z,23.37
2023-01-21T17:41:24.703Z,23.38
2023-01-21T17:43:55.631Z,23.59
2023-01-21T17:46:24.748Z,24.09
2023-01-21T17:48:55.776Z,24.64
2023-01-21T17:51:27.338Z,26.13
2023-01-21T17:53:58.900Z,26.39
2023-01-21T17:56:40.977Z,25.79
2023-01-21T17:59:38.107Z,25.23
2023-01-21T18:02:10.942Z,24.68
2023-01-21T18:04:39.455Z,24.29
2023-01-21T18:07:15.975Z,25.95
2023-01-21T18:09:44.309Z,25.68
2023-01-21T18:12:13.591Z,25.19
2023-01-21T18:14:42.350Z,24.80
2023-01-21T18:17:15.922Z,24.39
2023-01-21T18:19:43.966Z,23.90
2023-01-21T18:22:23.372Z,23.70
2023-01-21T18:24:51.541Z,23.35
2023-01-21T18:27:25.675Z,23.07
2023-01-21T18:29:54.550Z,23.03
2023-01-21T18:32:22.525Z,22.75
2023-01-21T18:34:50.539Z,22.46
2023-01-21T18:37:20.944Z,22.48
2023-01-21T18:39:48.967Z,22.19
2023-01-21T18:42:18.243Z,22.09
2023-01-21T18:44:47.678Z,21.92
2023-01-21T18:47:17.227Z,21.62
2023-01-21T18:49:45.408Z,21.65
2023-01-21T18:52:15.956Z,21.38
2023-01-21T18:54:43.963Z,21.50
2023-01-21T18:57:12.779Z,21.45
2023-01-21T18:59:40.805Z,21.40
2023-01-21T19:02:13.797Z,21.30
2023-01-21T19:04:41.846Z,21.17
2023-01-21T19:07:15.002Z,21.34
2023-01-21T19:09:46.118Z,21.31
2023-01-21T19:12:16.473Z,21.17
2023-01-21T19:14:44.488Z,21.02
2023-01-21T19:17:14.519Z,20.91
2023-01-21T19:19:42.521Z,20.82
2023-01-21T19:22:13.512Z,20.68
2023-01-21T19:24:41.630Z,20.86
2023-01-21T19:27:15.706Z,20.91
2023-01-21T19:29:43.817Z,20.79
2023-01-21T19:32:15.645Z,20.48
2023-01-21T19:34:43.978Z,20.46
2023-01-21T19:37:15.046Z,20.46
2023-01-21T19:39:43.310Z,20.28
2023-01-21T19:42:11.864Z,20.48
2023-01-21T19:44:40.400Z,20.33
2023-01-21T19:47:17.812Z,20.21
2023-01-21T19:49:45.917Z,20.25
2023-01-21T19:52:15.225Z,20.00
2023-01-21T19:54:43.251Z,20.10
2023-01-21T19:57:14.894Z,19.93
2023-01-21T19:59:43.554Z,20.12
2023-01-21T20:02:12.375Z,19.90
2023-01-21T20:04:41.722Z,20.27
2023-01-21T20:07:13.920Z,20.10
2023-01-21T20:09:42.120Z,20.25
2023-01-21T20:12:12.389Z,20.10
2023-01-21T20:14:40.444Z,20.07
2023-01-21T20:17:14.245Z,19.83
2023-01-21T20:19:43.741Z,20.10
2023-01-21T20:22:13.654Z,19.84
2023-01-21T20:24:41.701Z,20.10
2023-01-21T20:27:15.151Z,19.90
2023-01-21T20:29:55.549Z,19.85
2023-01-21T20:32:30.425Z,19.69
2023-01-21T20:34:59.792Z,19.85
2023-01-21T20:37:27.740Z,19.74
2023-01-21T20:39:55.770Z,19.75
2023-01-21T20:42:23.806Z,19.71
2023-01-21T20:44:51.914Z,19.74
2023-01-21T20:47:27.637Z,19.81
2023-01-21T20:50:19.925Z,19.69
2023-01-21T20:52:48.828Z,19.82
2023-01-21T20:55:20.718Z,19.86
2023-01-21T20:57:49.217Z,19.52
2023-01-21T21:00:19.658Z,19.40
2023-01-21T21:02:49.087Z,19.52
2023-01-21T21:05:19.726Z,19.48
2023-01-21T21:07:48.265Z,19.65
2023-01-21T21:10:21.223Z,19.31
2023-01-21T21:12:49.684Z,19.34
2023-01-21T21:15:19.497Z,19.35
2023-01-21T21:17:48.065Z,19.51
2023-01-21T21:20:20.119Z,19.31
2023-01-21T21:22:48.276Z,19.33
2023-01-21T21:25:17.752Z,19.32
2023-01-21T21:27:46.541Z,19.38
2023-01-21T21:30:16.421Z,19.10
2023-01-21T21:32:44.502Z,19.53
2023-01-21T21:35:32.151Z,19.21
2023-01-21T21:38:03.993Z,19.06
2023-01-21T21:40:32.347Z,19.08
2023-01-21T21:43:17.826Z,18.90
2023-01-21T21:46:00.026Z,19.13
2023-01-21T21:48:39.839Z,19.32
2023-01-21T21:51:10.759Z,19.30
2023-01-21T21:53:40.033Z,19.04
2023-01-21T21:56:10.958Z,18.78
2023-01-21T21:58:39.174Z,19.06
2023-01-21T22:01:12.043Z,19.06
2023-01-21T22:03:40.725Z,18.95
2023-01-21T22:06:10.892Z,18.88
2023-01-21T22:08:40.381Z,18.78
2023-01-21T22:11:10.794Z,19.06
2023-01-21T22:13:40.379Z,18.79
2023-01-21T22:16:11.918Z,18.57
2023-01-21T22:18:40.633Z,18.59
2023-01-21T22:21:12.782Z,18.77
2023-01-21T22:23:40.869Z,18.86
2023-01-21T22:26:12.372Z,18.88
2023-01-21T22:28:40.942Z,18.67
2023-01-21T22:31:11.091Z,18.67
2023-01-21T22:33:40.341Z,18.65
2023-01-21T22:36:12.342Z,18.53
2023-01-21T22:38:40.898Z,18.66
2023-01-21T22:41:10.583Z,18.59
2023-01-21T22:43:41.837Z,18.74
2023-01-21T22:46:12.033Z,18.58
2023-01-21T22:48:41.469Z,18.57
2023-01-21T22:51:13.029Z,18.38
2023-01-21T22:53:41.392Z,18.40
2023-01-21T22:56:09.633Z,18.54
2023-01-21T22:58:38.031Z,18.40
2023-01-21T23:01:06.974Z,18.75
2023-01-21T23:03:35.259Z,18.53
2023-01-21T23:06:04.921Z,18.43
2023-01-21T23:08:34.395Z,18.25
2023-01-21T23:11:04.185Z,18.60
2023-01-21T23:13:32.513Z,18.39
2023-01-21T23:16:00.817Z,18.44
2023-01-21T23:18:30.098Z,18.29
2023-01-21T23:20:58.101Z,18.49
2023-01-21T23:23:26.239Z,18.54
2023-01-21T23:25:55.586Z,18.52
2023-01-21T23:28:24.578Z,18.52
2023-01-21T23:30:52.680Z,18.17
2023-01-21T23:33:20.730Z,18.41
2023-01-21T23:35:55.518Z,18.17
2023-01-21T23:38:23.850Z,18.20
2023-01-21T23:40:51.809Z,18.13
2023-01-21T23:43:25.234Z,18.02
2023-01-21T23:45:53.346Z,18.31
2023-01-21T23:48:21.536Z,18.29
2023-01-21T23:50:49.809Z,18.25
2023-01-21T23:53:18.088Z,18.25
2023-01-21T23:55:46.145Z,17.96
2023-01-21T23:58:14.103Z,18.15
